sensor_id;sensor_type;location;lat;lon;timestamp;temperature;humidity
29093;DHT22;16167;48.768;14.984;2023-08-07T00:00:00;12.80;1.00
29093;DHT22;16167;48.768;14.984;2023-08-07T00:02:29;12.80;1.00
29093;DHT22;16167;48.768;14.984;2023-08-07T00:04:57;12.80;1.00
29093;DHT22;16167;48.768;14.984;2023-08-07T00:07:26;12.80;1.00
29093;DHT22;16167;48.768;14.984;2023-08-07T00:09:55;12.80;1.00
29093;DHT22;16167;48.768;14.984;2023-08-07T00:12:23;12.80;1.00
29093;DHT22;16167;48.768;14.984;2023-08-07T00:14:51;12.80;1.00
29093;DHT22;16167;48.768;14.984;2023-08-07T00:17:19;12.80;1.00
29093;DHT22;16167;48.768;14.984;2023-08-07T00:19:47;12.80;1.00
29093;DHT22;16167;48.768;14.984;2023-08-07T00:22:15;12.80;1.00
29093;DHT22;16167;48.768;14.984;2023-08-07T00:24:43;12.80;1.00
29093;DHT22;16167;48.768;14.984;2023-08-07T00:27:12;12.80;1.00
29093;DHT22;16167;48.768;14.984;2023-08-07T00:29:41;12.80;1.00
29093;DHT22;16167;48.768;14.984;2023-08-07T00:32:09;12.80;1.00
29093;DHT22;16167;48.768;14.984;2023-08-07T00:34:37;12.80;1.00
29093;DHT22;16167;48.768;14.984;2023-08-07T00:37:05;12.80;1.00
29093;DHT22;16167;48.768;14.984;2023-08-07T00:39:33;12.80;1.00
29093;DHT22;16167;48.768;14.984;2023-08-07T00:42:01;12.80;1.00
29093;DHT22;16167;48.768;14.984;2023-08-07T00:44:31;12.70;1.00
29093;DHT22;16167;48.768;14.984;2023-08-07T00:46:59;12.80;1.00
29093;DHT22;16167;48.768;14.984;2023-08-07T00:49:27;12.70;1.00
29093;DHT22;16167;48.768;14.984;2023-08-07T00:51:55;12.70;1.00
29093;DHT22;16167;48.768;14.984;2023-08-07T00:54:23;12.80;1.00
29093;DHT22;16167;48.768;14.984;2023-08-07T00:56:53;12.70;1.00
29093;DHT22;16167;48.768;14.984;2023-08-07T00:59:21;12.70;1.00
29093;DHT22;16167;48.768;14.984;2023-08-07T01:01:51;12.70;1.00
29093;DHT22;16167;48.768;14.984;2023-08-07T01:04:19;12.70;1.00
29093;DHT22;16167;48.768;14.984;2023-08-07T01:06:47;12.70;1.00
29093;DHT22;16167;48.768;14.984;2023-08-07T01:09:15;12.70;1.00
29093;DHT22;16167;48.768;14.984;2023-08-07T01:11:45;12.70;1.00
29093;DHT22;16167;48.768;14.984;2023-08-07T01:14:18;12.70;1.00
29093;DHT22;16167;48.768;14.984;2023-08-07T01:16:50;12.70;1.00
29093;DHT22;16167;48.768;14.984;2023-08-07T01:19:24;12.70;1.00
29093;DHT22;16167;48.768;14.984;2023-08-07T01:22:04;12.60;1.00
29093;DHT22;16167;48.768;14.984;2023-08-07T01:24:33;12.60;1.00
29093;DHT22;16167;48.768;14.984;2023-08-07T01:27:03;12.70;1.00
29093;DHT22;16167;48.768;14.984;2023-08-07T01:29:36;12.70;1.00
29093;DHT22;16167;48.768;14.984;2023-08-07T01:32:05;12.60;1.00
29093;DHT22;16167;48.768;14.984;2023-08-07T01:34:35;12.60;1.00
29093;DHT22;16167;48.768;14.984;2023-08-07T01:37:05;12.60;1.00
29093;DHT22;16167;48.768;14.984;2023-08-07T01:39:34;12.70;1.00
29093;DHT22;16167;48.768;14.984;2023-08-07T01:42:03;12.70;1.00
29093;DHT22;16167;48.768;14.984;2023-08-07T01:44:31;12.60;1.00
29093;DHT22;16167;48.768;14.984;2023-08-07T01:46:59;12.60;1.00
29093;DHT22;16167;48.768;14.984;2023-08-07T01:49:27;12.60;1.00
29093;DHT22;16167;48.768;14.984;2023-08-07T01:51:55;12.50;1.00
29093;DHT22;16167;48.768;14.984;2023-08-07T01:54:24;12.50;1.00
29093;DHT22;16167;48.768;14.984;2023-08-07T01:56:52;12.50;1.00
29093;DHT22;16167;48.768;14.984;2023-08-07T01:59:21;12.50;1.00
29093;DHT22;16167;48.768;14.984;2023-08-07T02:01:49;12.40;1.00
29093;DHT22;16167;48.768;14.984;2023-08-07T02:04:17;12.40;1.00
29093;DHT22;16167;48.768;14.984;2023-08-07T02:06:45;12.40;1.00
29093;DHT22;16167;48.768;14.984;2023-08-07T02:09:12;12.30;1.00
29093;DHT22;16167;48.768;14.984;2023-08-07T02:11:42;12.30;1.00
29093;DHT22;16167;48.768;14.984;2023-08-07T02:14:10;12.30;1.00
29093;DHT22;16167;48.768;14.984;2023-08-07T02:16:38;12.30;1.00
29093;DHT22;16167;48.768;14.984;2023-08-07T02:19:06;12.30;1.00
29093;DHT22;16167;48.768;14.984;2023-08-07T02:21:35;12.30;1.00
29093;DHT22;16167;48.768;14.984;2023-08-07T02:24:03;12.30;1.00
29093;DHT22;16167;48.768;14.984;2023-08-07T02:26:31;12.30;1.00
29093;DHT22;16167;48.768;14.984;2023-08-07T02:29:00;12.40;1.00
29093;DHT22;16167;48.768;14.984;2023-08-07T02:31:29;12.40;1.00
29093;DHT22;16167;48.768;14.984;2023-08-07T02:33:57;12.40;1.00
29093;DHT22;16167;48.768;14.984;2023-08-07T02:36:25;12.40;1.00
29093;DHT22;16167;48.768;14.984;2023-08-07T02:38:53;12.40;1.00
29093;DHT22;16167;48.768;14.984;2023-08-07T02:41:21;12.40;1.00
29093;DHT22;16167;48.768;14.984;2023-08-07T02:43:49;12.40;1.00
29093;DHT22;16167;48.768;14.984;2023-08-07T02:46:18;12.30;1.00
29093;DHT22;16167;48.768;14.984;2023-08-07T02:48:46;12.30;1.00
29093;DHT22;16167;48.768;14.984;2023-08-07T02:51:14;12.30;1.00
29093;DHT22;16167;48.768;14.984;2023-08-07T02:53:42;12.30;1.00
29093;DHT22;16167;48.768;14.984;2023-08-07T02:56:10;12.30;1.00
29093;DHT22;16167;48.768;14.984;2023-08-07T02:58:38;12.30;1.00
29093;DHT22;16167;48.768;14.984;2023-08-07T03:01:06;12.40;1.00
29093;DHT22;16167;48.768;14.984;2023-08-07T03:03:36;12.30;1.00
29093;DHT22;16167;48.768;14.984;2023-08-07T03:06:04;12.40;1.00
29093;DHT22;16167;48.768;14.984;2023-08-07T03:08:32;12.30;1.00
29093;DHT22;16167;48.768;14.984;2023-08-07T03:11:00;12.30;1.00
29093;DHT22;16167;48.768;14.984;2023-08-07T03:13:27;12.30;1.00
29093;DHT22;16167;48.768;14.984;2023-08-07T03:15:59;12.40;1.00
29093;DHT22;16167;48.768;14.984;2023-08-07T03:18:27;12.30;1.00
29093;DHT22;16167;48.768;14.984;2023-08-07T03:20:56;12.30;1.00
29093;DHT22;16167;48.768;14.984;2023-08-07T03:23:25;12.30;1.00
29093;DHT22;16167;48.768;14.984;2023-08-07T03:26:01;12.30;1.00
29093;DHT22;16167;48.768;14.984;2023-08-07T03:28:44;12.30;1.00
29093;DHT22;16167;48.768;14.984;2023-08-07T03:31:14;12.30;1.00
29093;DHT22;16167;48.768;14.984;2023-08-07T03:33:42;12.30;1.00
29093;DHT22;16167;48.768;14.984;2023-08-07T03:36:11;12.30;1.00
29093;DHT22;16167;48.768;14.984;2023-08-07T03:38:39;12.30;1.00
29093;DHT22;16167;48.768;14.984;2023-08-07T03:41:07;12.30;1.00
29093;DHT22;16167;48.768;14.984;2023-08-07T03:43:35;12.30;1.00
29093;DHT22;16167;48.768;14.984;2023-08-07T03:46:03;12.30;1.00
29093;DHT22;16167;48.768;14.984;2023-08-07T03:48:31;12.30;1.00
29093;DHT22;16167;48.768;14.984;2023-08-07T03:51:02;12.30;1.00
29093;DHT22;16167;48.768;14.984;2023-08-07T03:53:32;12.20;1.00
29093;DHT22;16167;48.768;14.984;2023-08-07T03:56:00;12.20;1.00
29093;DHT22;16167;48.768;14.984;2023-08-07T03:58:28;12.20;1.00
29093;DHT22;16167;48.768;14.984;2023-08-07T04:00:56;12.10;1.00
29093;DHT22;16167;48.768;14.984;2023-08-07T04:03:24;12.10;1.00
29093;DHT22;16167;48.768;14.984;2023-08-07T04:05:53;12.00;1.00
29093;DHT22;16167;48.768;14.984;2023-08-07T04:08:21;12.00;1.00
29093;DHT22;16167;48.768;14.984;2023-08-07T04:11:01;12.10;1.00
29093;DHT22;16167;48.768;14.984;2023-08-07T04:13:29;12.10;1.00
29093;DHT22;16167;48.768;14.984;2023-08-07T04:15:58;12.10;1.00
29093;DHT22;16167;48.768;14.984;2023-08-07T04:18:27;12.10;1.00
29093;DHT22;16167;48.768;14.984;2023-08-07T04:20:56;12.00;1.00
29093;DHT22;16167;48.768;14.984;2023-08-07T04:23:24;12.00;1.00
29093;DHT22;16167;48.768;14.984;2023-08-07T04:25:52;12.00;1.00
29093;DHT22;16167;48.768;14.984;2023-08-07T04:28:23;12.00;1.00
29093;DHT22;16167;48.768;14.984;2023-08-07T04:30:51;12.00;1.00
29093;DHT22;16167;48.768;14.984;2023-08-07T04:33:20;12.00;1.00
29093;DHT22;16167;48.768;14.984;2023-08-07T04:35:48;12.00;1.00
29093;DHT22;16167;48.768;14.984;2023-08-07T04:38:16;11.90;1.00
29093;DHT22;16167;48.768;14.984;2023-08-07T04:40:44;11.90;1.00
29093;DHT22;16167;48.768;14.984;2023-08-07T04:43:13;11.90;1.00
29093;DHT22;16167;48.768;14.984;2023-08-07T04:45:42;11.90;1.00
29093;DHT22;16167;48.768;14.984;2023-08-07T04:48:12;11.90;1.00
29093;DHT22;16167;48.768;14.984;2023-08-07T04:50:40;11.90;1.00
29093;DHT22;16167;48.768;14.984;2023-08-07T04:53:08;11.90;1.00
29093;DHT22;16167;48.768;14.984;2023-08-07T04:55:36;11.90;1.00
29093;DHT22;16167;48.768;14.984;2023-08-07T04:58:04;11.90;1.00
29093;DHT22;16167;48.768;14.984;2023-08-07T05:00:32;11.90;1.00
29093;DHT22;16167;48.768;14.984;2023-08-07T05:03:02;11.90;1.00
29093;DHT22;16167;48.768;14.984;2023-08-07T05:05:31;11.90;1.00
29093;DHT22;16167;48.768;14.984;2023-08-07T05:07:59;11.90;1.00
29093;DHT22;16167;48.768;14.984;2023-08-07T05:10:27;11.90;1.50
29093;DHT22;16167;48.768;14.984;2023-08-07T05:12:55;11.90;1.00
29093;DHT22;16167;48.768;14.984;2023-08-07T05:15:23;11.90;1.30
29093;DHT22;16167;48.768;14.984;2023-08-07T05:17:51;11.90;1.00
29093;DHT22;16167;48.768;14.984;2023-08-07T05:20:21;11.90;9.00
29093;DHT22;16167;48.768;14.984;2023-08-07T05:22:49;11.90;11.10
29093;DHT22;16167;48.768;14.984;2023-08-07T05:25:17;11.90;8.70
29093;DHT22;16167;48.768;14.984;2023-08-07T05:27:45;12.00;14.10
29093;DHT22;16167;48.768;14.984;2023-08-07T05:30:13;12.00;13.60
29093;DHT22;16167;48.768;14.984;2023-08-07T05:32:41;12.00;22.00
29093;DHT22;16167;48.768;14.984;2023-08-07T05:35:09;12.00;22.70
29093;DHT22;16167;48.768;14.984;2023-08-07T05:37:39;11.90;15.30
29093;DHT22;16167;48.768;14.984;2023-08-07T05:40:07;12.00;21.20
29093;DHT22;16167;48.768;14.984;2023-08-07T05:42:38;11.90;25.40
29093;DHT22;16167;48.768;14.984;2023-08-07T05:45:07;11.90;24.00
29093;DHT22;16167;48.768;14.984;2023-08-07T05:47:36;11.80;29.50
29093;DHT22;16167;48.768;14.984;2023-08-07T05:50:05;11.80;32.50
29093;DHT22;16167;48.768;14.984;2023-08-07T05:52:33;11.70;29.30
29093;DHT22;16167;48.768;14.984;2023-08-07T05:55:02;11.80;30.80
29093;DHT22;16167;48.768;14.984;2023-08-07T05:57:33;11.80;39.90
29093;DHT22;16167;48.768;14.984;2023-08-07T06:00:01;11.80;39.50
29093;DHT22;16167;48.768;14.984;2023-08-07T06:02:29;11.70;37.60
29093;DHT22;16167;48.768;14.984;2023-08-07T06:04:57;11.70;36.70
29093;DHT22;16167;48.768;14.984;2023-08-07T06:07:24;11.70;45.60
29093;DHT22;16167;48.768;14.984;2023-08-07T06:09:52;11.60;40.80
29093;DHT22;16167;48.768;14.984;2023-08-07T06:12:22;11.50;45.50
29093;DHT22;16167;48.768;14.984;2023-08-07T06:14:50;11.50;45.90
29093;DHT22;16167;48.768;14.984;2023-08-07T06:17:18;11.50;46.40
29093;DHT22;16167;48.768;14.984;2023-08-07T06:19:46;11.40;48.20
29093;DHT22;16167;48.768;14.984;2023-08-07T06:22:14;11.40;50.50
29093;DHT22;16167;48.768;14.984;2023-08-07T06:24:42;11.40;51.00
29093;DHT22;16167;48.768;14.984;2023-08-07T06:27:10;11.40;50.50
29093;DHT22;16167;48.768;14.984;2023-08-07T06:29:39;11.40;50.40
29093;DHT22;16167;48.768;14.984;2023-08-07T06:32:07;11.40;53.30
29093;DHT22;16167;48.768;14.984;2023-08-07T06:34:37;11.40;55.70
29093;DHT22;16167;48.768;14.984;2023-08-07T06:37:05;11.40;52.80
29093;DHT22;16167;48.768;14.984;2023-08-07T06:39:33;11.40;55.70
29093;DHT22;16167;48.768;14.984;2023-08-07T06:42:01;11.40;55.80
29093;DHT22;16167;48.768;14.984;2023-08-07T06:44:29;11.40;57.80
29093;DHT22;16167;48.768;14.984;2023-08-07T06:46:58;11.40;61.00
29093;DHT22;16167;48.768;14.984;2023-08-07T06:49:26;11.40;59.00
29093;DHT22;16167;48.768;14.984;2023-08-07T06:51:54;11.50;60.80
29093;DHT22;16167;48.768;14.984;2023-08-07T06:54:23;11.40;56.00
29093;DHT22;16167;48.768;14.984;2023-08-07T06:56:51;11.50;66.70
29093;DHT22;16167;48.768;14.984;2023-08-07T06:59:19;11.50;63.20
29093;DHT22;16167;48.768;14.984;2023-08-07T07:01:47;11.50;58.70
29093;DHT22;16167;48.768;14.984;2023-08-07T07:04:16;11.60;60.20
29093;DHT22;16167;48.768;14.984;2023-08-07T07:06:44;11.60;58.40
29093;DHT22;16167;48.768;14.984;2023-08-07T07:09:12;11.60;61.40
29093;DHT22;16167;48.768;14.984;2023-08-07T07:11:43;11.60;59.50
29093;DHT22;16167;48.768;14.984;2023-08-07T07:14:11;11.60;57.30
29093;DHT22;16167;48.768;14.984;2023-08-07T07:16:39;11.60;60.50
29093;DHT22;16167;48.768;14.984;2023-08-07T07:19:08;11.70;56.90
29093;DHT22;16167;48.768;14.984;2023-08-07T07:21:38;11.70;55.40
29093;DHT22;16167;48.768;14.984;2023-08-07T07:24:06;11.70;57.30
29093;DHT22;16167;48.768;14.984;2023-08-07T07:26:34;11.70;54.40
29093;DHT22;16167;48.768;14.984;2023-08-07T07:29:02;11.60;53.10
29093;DHT22;16167;48.768;14.984;2023-08-07T07:31:30;11.60;52.30
29093;DHT22;16167;48.768;14.984;2023-08-07T07:33:58;11.60;53.70
29093;DHT22;16167;48.768;14.984;2023-08-07T07:36:26;11.50;57.90
29093;DHT22;16167;48.768;14.984;2023-08-07T07:38:55;11.50;67.80
29093;DHT22;16167;48.768;14.984;2023-08-07T07:41:23;11.50;62.80
29093;DHT22;16167;48.768;14.984;2023-08-07T07:43:51;11.50;60.20
29093;DHT22;16167;48.768;14.984;2023-08-07T07:46:22;11.50;59.70
29093;DHT22;16167;48.768;14.984;2023-08-07T07:48:51;11.50;57.50
29093;DHT22;16167;48.768;14.984;2023-08-07T07:51:19;11.50;62.30
29093;DHT22;16167;48.768;14.984;2023-08-07T07:53:47;11.50;62.10
29093;DHT22;16167;48.768;14.984;2023-08-07T07:56:36;11.50;66.40
29093;DHT22;16167;48.768;14.984;2023-08-07T07:59:04;11.50;56.20
29093;DHT22;16167;48.768;14.984;2023-08-07T08:01:34;11.50;60.20
29093;DHT22;16167;48.768;14.984;2023-08-07T08:04:03;11.60;59.10
29093;DHT22;16167;48.768;14.984;2023-08-07T08:06:31;11.60;52.00
29093;DHT22;16167;48.768;14.984;2023-08-07T08:08:59;11.60;51.90
29093;DHT22;16167;48.768;14.984;2023-08-07T08:11:31;11.60;46.70
29093;DHT22;16167;48.768;14.984;2023-08-07T08:14:01;11.70;49.50
29093;DHT22;16167;48.768;14.984;2023-08-07T08:16:29;11.60;58.90
29093;DHT22;16167;48.768;14.984;2023-08-07T08:18:57;11.70;56.50
29093;DHT22;16167;48.768;14.984;2023-08-07T08:21:25;11.70;53.00
29093;DHT22;16167;48.768;14.984;2023-08-07T08:23:53;11.70;47.20
29093;DHT22;16167;48.768;14.984;2023-08-07T08:26:21;11.70;51.70
29093;DHT22;16167;48.768;14.984;2023-08-07T08:28:49;11.70;44.10
29093;DHT22;16167;48.768;14.984;2023-08-07T08:31:18;11.70;54.40
29093;DHT22;16167;48.768;14.984;2023-08-07T08:33:48;11.80;59.50
29093;DHT22;16167;48.768;14.984;2023-08-07T08:36:16;11.80;48.60
29093;DHT22;16167;48.768;14.984;2023-08-07T08:38:44;11.80;51.50
29093;DHT22;16167;48.768;14.984;2023-08-07T08:41:15;11.80;54.60
29093;DHT22;16167;48.768;14.984;2023-08-07T08:43:44;11.80;51.30
29093;DHT22;16167;48.768;14.984;2023-08-07T08:46:14;11.90;44.40
29093;DHT22;16167;48.768;14.984;2023-08-07T08:48:44;11.80;41.40
29093;DHT22;16167;48.768;14.984;2023-08-07T08:51:13;11.90;49.50
29093;DHT22;16167;48.768;14.984;2023-08-07T08:53:41;11.90;46.30
29093;DHT22;16167;48.768;14.984;2023-08-07T08:56:09;12.00;46.70
29093;DHT22;16167;48.768;14.984;2023-08-07T08:58:37;12.00;49.00
29093;DHT22;16167;48.768;14.984;2023-08-07T09:01:06;12.00;45.40
29093;DHT22;16167;48.768;14.984;2023-08-07T09:03:34;11.90;35.70
29093;DHT22;16167;48.768;14.984;2023-08-07T09:06:03;12.00;43.80
29093;DHT22;16167;48.768;14.984;2023-08-07T09:08:33;12.00;44.80
29093;DHT22;16167;48.768;14.984;2023-08-07T09:11:02;12.10;48.20
29093;DHT22;16167;48.768;14.984;2023-08-07T09:13:30;12.00;39.80
29093;DHT22;16167;48.768;14.984;2023-08-07T09:16:00;12.10;43.90
29093;DHT22;16167;48.768;14.984;2023-08-07T09:18:28;12.10;55.30
29093;DHT22;16167;48.768;14.984;2023-08-07T09:20:56;12.20;44.10
29093;DHT22;16167;48.768;14.984;2023-08-07T09:23:26;12.10;47.10
29093;DHT22;16167;48.768;14.984;2023-08-07T09:26:00;12.10;37.80
29093;DHT22;16167;48.768;14.984;2023-08-07T09:28:28;12.10;36.50
29093;DHT22;16167;48.768;14.984;2023-08-07T09:30:57;12.10;42.30
29093;DHT22;16167;48.768;14.984;2023-08-07T09:33:26;12.20;41.40
29093;DHT22;16167;48.768;14.984;2023-08-07T09:35:57;12.20;48.40
29093;DHT22;16167;48.768;14.984;2023-08-07T09:38:29;12.20;38.30
29093;DHT22;16167;48.768;14.984;2023-08-07T09:40:59;12.20;44.40
29093;DHT22;16167;48.768;14.984;2023-08-07T09:43:28;12.20;42.70
29093;DHT22;16167;48.768;14.984;2023-08-07T09:46:01;12.20;38.50
29093;DHT22;16167;48.768;14.984;2023-08-07T09:48:29;12.20;32.20
29093;DHT22;16167;48.768;14.984;2023-08-07T09:51:00;12.20;36.50
29093;DHT22;16167;48.768;14.984;2023-08-07T09:53:30;12.20;36.20
29093;DHT22;16167;48.768;14.984;2023-08-07T09:55:58;12.20;42.10
29093;DHT22;16167;48.768;14.984;2023-08-07T09:58:26;12.20;42.40
29093;DHT22;16167;48.768;14.984;2023-08-07T10:00:55;12.10;42.10
29093;DHT22;16167;48.768;14.984;2023-08-07T10:03:26;12.10;34.80
29093;DHT22;16167;48.768;14.984;2023-08-07T10:05:54;12.20;39.80
29093;DHT22;16167;48.768;14.984;2023-08-07T10:08:23;12.20;35.80
29093;DHT22;16167;48.768;14.984;2023-08-07T10:10:52;12.30;41.80
29093;DHT22;16167;48.768;14.984;2023-08-07T10:13:21;12.30;39.80
29093;DHT22;16167;48.768;14.984;2023-08-07T10:16:04;12.40;48.80
29093;DHT22;16167;48.768;14.984;2023-08-07T10:18:33;12.60;45.50
29093;DHT22;16167;48.768;14.984;2023-08-07T10:21:01;12.60;30.60
29093;DHT22;16167;48.768;14.984;2023-08-07T10:23:29;12.70;43.60
29093;DHT22;16167;48.768;14.984;2023-08-07T10:26:00;12.70;32.30
29093;DHT22;16167;48.768;14.984;2023-08-07T10:28:29;12.80;38.20
29093;DHT22;16167;48.768;14.984;2023-08-07T10:30:58;12.80;44.50
29093;DHT22;16167;48.768;14.984;2023-08-07T10:33:27;12.80;47.00
29093;DHT22;16167;48.768;14.984;2023-08-07T10:35:55;12.90;41.00
29093;DHT22;16167;48.768;14.984;2023-08-07T10:38:26;12.90;48.50
29093;DHT22;16167;48.768;14.984;2023-08-07T10:41:02;12.90;55.60
29093;DHT22;16167;48.768;14.984;2023-08-07T10:43:30;13.00;34.00
29093;DHT22;16167;48.768;14.984;2023-08-07T10:46:05;13.10;41.60
29093;DHT22;16167;48.768;14.984;2023-08-07T10:48:42;13.10;28.00
29093;DHT22;16167;48.768;14.984;2023-08-07T10:51:12;13.10;30.90
29093;DHT22;16167;48.768;14.984;2023-08-07T10:53:41;13.20;23.50
29093;DHT22;16167;48.768;14.984;2023-08-07T10:56:15;13.30;18.60
29093;DHT22;16167;48.768;14.984;2023-08-07T10:58:47;13.50;23.90
29093;DHT22;16167;48.768;14.984;2023-08-07T11:01:16;13.70;11.20
29093;DHT22;16167;48.768;14.984;2023-08-07T11:03:43;13.80;2.10
29093;DHT22;16167;48.768;14.984;2023-08-07T11:06:11;13.80;1.00
29093;DHT22;16167;48.768;14.984;2023-08-07T11:08:40;13.80;1.50
29093;DHT22;16167;48.768;14.984;2023-08-07T11:11:08;13.80;1.00
29093;DHT22;16167;48.768;14.984;2023-08-07T11:13:37;13.80;1.00
29093;DHT22;16167;48.768;14.984;2023-08-07T11:16:05;13.80;1.00
29093;DHT22;16167;48.768;14.984;2023-08-07T11:18:34;13.90;3.60
29093;DHT22;16167;48.768;14.984;2023-08-07T11:21:05;14.00;1.90
29093;DHT22;16167;48.768;14.984;2023-08-07T11:23:33;14.10;1.00
29093;DHT22;16167;48.768;14.984;2023-08-07T11:26:02;14.10;1.00
29093;DHT22;16167;48.768;14.984;2023-08-07T11:28:30;14.00;1.00
29093;DHT22;16167;48.768;14.984;2023-08-07T11:31:00;14.00;1.00
29093;DHT22;16167;48.768;14.984;2023-08-07T11:33:28;14.10;1.00
29093;DHT22;16167;48.768;14.984;2023-08-07T11:35:56;14.10;1.00
29093;DHT22;16167;48.768;14.984;2023-08-07T11:38:31;14.20;1.00
29093;DHT22;16167;48.768;14.984;2023-08-07T11:41:00;14.40;1.00
29093;DHT22;16167;48.768;14.984;2023-08-07T11:43:28;14.60;1.00
29093;DHT22;16167;48.768;14.984;2023-08-07T11:45:57;14.80;1.00
29093;DHT22;16167;48.768;14.984;2023-08-07T11:48:27;15.20;1.00
29093;DHT22;16167;48.768;14.984;2023-08-07T11:50:56;15.40;1.00
29093;DHT22;16167;48.768;14.984;2023-08-07T11:53:24;15.40;1.00
29093;DHT22;16167;48.768;14.984;2023-08-07T11:55:53;15.50;1.00
29093;DHT22;16167;48.768;14.984;2023-08-07T11:58:24;15.50;1.00
29093;DHT22;16167;48.768;14.984;2023-08-07T12:00:52;15.50;1.00
29093;DHT22;16167;48.768;14.984;2023-08-07T12:03:23;15.60;1.00
29093;DHT22;16167;48.768;14.984;2023-08-07T12:05:54;15.50;1.00
29093;DHT22;16167;48.768;14.984;2023-08-07T12:08:23;15.50;1.00
29093;DHT22;16167;48.768;14.984;2023-08-07T12:10:51;15.40;1.00
29093;DHT22;16167;48.768;14.984;2023-08-07T12:13:23;15.30;1.00
29093;DHT22;16167;48.768;14.984;2023-08-07T12:15:53;15.20;1.00
29093;DHT22;16167;48.768;14.984;2023-08-07T12:18:21;15.10;1.00
29093;DHT22;16167;48.768;14.984;2023-08-07T12:20:50;14.90;1.00
29093;DHT22;16167;48.768;14.984;2023-08-07T12:23:20;14.90;1.00
29093;DHT22;16167;48.768;14.984;2023-08-07T12:25:49;14.90;1.00
29093;DHT22;16167;48.768;14.984;2023-08-07T12:28:19;15.10;1.00
29093;DHT22;16167;48.768;14.984;2023-08-07T12:30:47;15.30;1.00
29093;DHT22;16167;48.768;14.984;2023-08-07T12:33:15;15.40;1.00
29093;DHT22;16167;48.768;14.984;2023-08-07T12:35:43;15.50;1.00
29093;DHT22;16167;48.768;14.984;2023-08-07T12:38:11;15.60;1.00
29093;DHT22;16167;48.768;14.984;2023-08-07T12:40:42;15.60;1.00
29093;DHT22;16167;48.768;14.984;2023-08-07T12:43:10;15.50;1.00
29093;DHT22;16167;48.768;14.984;2023-08-07T12:45:38;15.40;1.00
29093;DHT22;16167;48.768;14.984;2023-08-07T12:48:09;15.40;1.00
29093;DHT22;16167;48.768;14.984;2023-08-07T12:50:38;15.40;1.00
29093;DHT22;16167;48.768;14.984;2023-08-07T12:53:06;15.40;1.00
29093;DHT22;16167;48.768;14.984;2023-08-07T12:55:34;15.30;1.00
29093;DHT22;16167;48.768;14.984;2023-08-07T12:58:04;15.40;1.00
29093;DHT22;16167;48.768;14.984;2023-08-07T13:00:32;15.40;1.00
29093;DHT22;16167;48.768;14.984;2023-08-07T13:03:00;15.40;1.00
29093;DHT22;16167;48.768;14.984;2023-08-07T13:05:28;15.40;1.00
29093;DHT22;16167;48.768;14.984;2023-08-07T13:07:56;15.60;1.00
29093;DHT22;16167;48.768;14.984;2023-08-07T13:10:25;15.90;1.00
29093;DHT22;16167;48.768;14.984;2023-08-07T13:12:54;15.90;1.00
29093;DHT22;16167;48.768;14.984;2023-08-07T13:15:24;15.90;1.00
29093;DHT22;16167;48.768;14.984;2023-08-07T13:17:53;15.90;1.00
29093;DHT22;16167;48.768;14.984;2023-08-07T13:20:21;15.90;1.00
29093;DHT22;16167;48.768;14.984;2023-08-07T13:22:49;15.80;1.00
29093;DHT22;16167;48.768;14.984;2023-08-07T13:25:17;15.70;1.00
29093;DHT22;16167;48.768;14.984;2023-08-07T13:27:45;15.70;1.00
29093;DHT22;16167;48.768;14.984;2023-08-07T13:30:13;15.60;1.00
29093;DHT22;16167;48.768;14.984;2023-08-07T13:32:42;15.50;1.00
29093;DHT22;16167;48.768;14.984;2023-08-07T13:35:10;15.60;1.00
29093;DHT22;16167;48.768;14.984;2023-08-07T13:37:38;15.60;1.00
29093;DHT22;16167;48.768;14.984;2023-08-07T13:40:07;15.70;1.00
29093;DHT22;16167;48.768;14.984;2023-08-07T13:42:38;15.70;1.00
29093;DHT22;16167;48.768;14.984;2023-08-07T13:45:07;15.80;1.00
29093;DHT22;16167;48.768;14.984;2023-08-07T13:47:36;15.80;1.00
29093;DHT22;16167;48.768;14.984;2023-08-07T13:50:07;15.80;1.00
29093;DHT22;16167;48.768;14.984;2023-08-07T13:52:39;15.90;1.00
29093;DHT22;16167;48.768;14.984;2023-08-07T13:55:07;16.00;1.00
29093;DHT22;16167;48.768;14.984;2023-08-07T13:57:36;16.10;1.00
29093;DHT22;16167;48.768;14.984;2023-08-07T14:00:04;16.10;1.00
29093;DHT22;16167;48.768;14.984;2023-08-07T14:02:33;16.20;1.00
29093;DHT22;16167;48.768;14.984;2023-08-07T14:05:01;16.10;1.00
29093;DHT22;16167;48.768;14.984;2023-08-07T14:07:32;16.10;1.00
29093;DHT22;16167;48.768;14.984;2023-08-07T14:10:00;16.10;1.00
29093;DHT22;16167;48.768;14.984;2023-08-07T14:12:28;16.10;1.00
29093;DHT22;16167;48.768;14.984;2023-08-07T14:14:56;16.00;1.00
29093;DHT22;16167;48.768;14.984;2023-08-07T14:17:24;16.00;1.00
29093;DHT22;16167;48.768;14.984;2023-08-07T14:19:52;16.00;1.00
29093;DHT22;16167;48.768;14.984;2023-08-07T14:22:20;16.00;1.00
29093;DHT22;16167;48.768;14.984;2023-08-07T14:24:49;16.20;1.00
29093;DHT22;16167;48.768;14.984;2023-08-07T14:27:17;16.30;1.00
29093;DHT22;16167;48.768;14.984;2023-08-07T14:29:45;16.40;1.00
29093;DHT22;16167;48.768;14.984;2023-08-07T14:32:13;16.50;1.00
29093;DHT22;16167;48.768;14.984;2023-08-07T14:34:41;16.40;1.00
29093;DHT22;16167;48.768;14.984;2023-08-07T14:37:09;16.60;1.00
29093;DHT22;16167;48.768;14.984;2023-08-07T14:39:37;16.50;1.00
29093;DHT22;16167;48.768;14.984;2023-08-07T14:42:06;16.40;1.00
29093;DHT22;16167;48.768;14.984;2023-08-07T14:44:34;16.30;1.00
29093;DHT22;16167;48.768;14.984;2023-08-07T14:47:03;16.20;1.00
29093;DHT22;16167;48.768;14.984;2023-08-07T14:49:31;16.00;1.00
29093;DHT22;16167;48.768;14.984;2023-08-07T14:51:59;15.90;1.00
29093;DHT22;16167;48.768;14.984;2023-08-07T14:54:27;15.90;1.00
29093;DHT22;16167;48.768;14.984;2023-08-07T14:56:57;16.00;1.00
29093;DHT22;16167;48.768;14.984;2023-08-07T14:59:27;16.10;1.00
29093;DHT22;16167;48.768;14.984;2023-08-07T15:01:55;16.30;1.00
29093;DHT22;16167;48.768;14.984;2023-08-07T15:04:23;16.50;1.00
29093;DHT22;16167;48.768;14.984;2023-08-07T15:06:51;16.70;1.00
29093;DHT22;16167;48.768;14.984;2023-08-07T15:09:19;16.80;1.00
29093;DHT22;16167;48.768;14.984;2023-08-07T15:11:47;16.70;1.00
29093;DHT22;16167;48.768;14.984;2023-08-07T15:14:15;16.60;1.00
29093;DHT22;16167;48.768;14.984;2023-08-07T15:16:44;16.60;1.00
29093;DHT22;16167;48.768;14.984;2023-08-07T15:19:12;16.50;1.00
29093;DHT22;16167;48.768;14.984;2023-08-07T15:21:41;16.50;1.00
29093;DHT22;16167;48.768;14.984;2023-08-07T15:24:09;16.50;1.00
29093;DHT22;16167;48.768;14.984;2023-08-07T15:26:36;16.50;1.00
29093;DHT22;16167;48.768;14.984;2023-08-07T15:29:04;16.50;1.00
29093;DHT22;16167;48.768;14.984;2023-08-07T15:31:33;16.40;1.00
29093;DHT22;16167;48.768;14.984;2023-08-07T15:34:02;16.50;1.00